sensor_id;sensor_type;location;lat;lon;timestamp;temperature;humidity
9668;DHT22;4872;48.316;10.650;2024-02-23T05:07:51;5.00;99.90
9668;DHT22;4872;48.316;10.650;2024-02-23T05:10:17;5.00;99.90
9668;DHT22;4872;48.316;10.650;2024-02-23T05:12:44;5.00;99.90
9668;DHT22;4872;48.316;10.650;2024-02-23T05:15:11;5.00;99.90
9668;DHT22;4872;48.316;10.650;2024-02-23T05:17:38;5.00;99.90
9668;DHT22;4872;48.316;10.650;2024-02-23T05:20:06;5.00;99.90
9668;DHT22;4872;48.316;10.650;2024-02-23T05:22:33;5.00;99.90
9668;DHT22;4872;48.316;10.650;2024-02-23T05:25:01;5.00;99.90
9668;DHT22;4872;48.316;10.650;2024-02-23T05:27:28;5.00;99.90
9668;DHT22;4872;48.316;10.650;2024-02-23T05:29:55;5.00;99.90
9668;DHT22;4872;48.316;10.650;2024-02-23T05:32:22;5.00;99.90
9668;DHT22;4872;48.316;10.650;2024-02-23T05:34:49;5.10;99.90
9668;DHT22;4872;48.316;10.650;2024-02-23T05:37:18;5.10;99.90
9668;DHT22;4872;48.316;10.650;2024-02-23T05:39:45;5.40;99.90
9668;DHT22;4872;48.316;10.650;2024-02-23T05:42:13;5.10;99.90
9668;DHT22;4872;48.316;10.650;2024-02-23T05:44:43;5.50;99.90
9668;DHT22;4872;48.316;10.650;2024-02-23T05:47:10;5.10;99.90
9668;DHT22;4872;48.316;10.650;2024-02-23T05:49:39;5.40;99.90
9668;DHT22;4872;48.316;10.650;2024-02-23T05:52:06;5.20;99.90
9668;DHT22;4872;48.316;10.650;2024-02-23T05:54:32;5.20;99.90
9668;DHT22;4872;48.316;10.650;2024-02-23T05:56:59;5.20;99.90
9668;DHT22;4872;48.316;10.650;2024-02-23T05:59:27;5.10;99.90
9668;DHT22;4872;48.316;10.650;2024-02-23T06:01:54;5.20;99.90
9668;DHT22;4872;48.316;10.650;2024-02-23T06:04:22;5.10;99.90
9668;DHT22;4872;48.316;10.650;2024-02-23T06:06:49;5.20;99.90
9668;DHT22;4872;48.316;10.650;2024-02-23T06:09:16;5.10;99.90
9668;DHT22;4872;48.316;10.650;2024-02-23T06:11:42;5.10;99.90
9668;DHT22;4872;48.316;10.650;2024-02-23T06:14:09;5.20;99.90
9668;DHT22;4872;48.316;10.650;2024-02-23T06:16:38;5.50;99.90
9668;DHT22;4872;48.316;10.650;2024-02-23T06:19:05;5.20;99.90
9668;DHT22;4872;48.316;10.650;2024-02-23T06:21:32;5.40;99.90
9668;DHT22;4872;48.316;10.650;2024-02-23T06:23:59;5.10;99.90
9668;DHT22;4872;48.316;10.650;2024-02-23T06:26:26;5.10;99.90
9668;DHT22;4872;48.316;10.650;2024-02-23T06:28:52;5.10;99.90
9668;DHT22;4872;48.316;10.650;2024-02-23T06:31:19;5.00;99.90
9668;DHT22;4872;48.316;10.650;2024-02-23T06:33:47;5.00;99.90
9668;DHT22;4872;48.316;10.650;2024-02-23T06:36:14;5.00;99.90
9668;DHT22;4872;48.316;10.650;2024-02-23T06:38:41;5.00;99.90
9668;DHT22;4872;48.316;10.650;2024-02-23T06:41:08;5.00;99.90
9668;DHT22;4872;48.316;10.650;2024-02-23T06:43:36;5.00;99.90
9668;DHT22;4872;48.316;10.650;2024-02-23T06:46:06;4.90;99.90
9668;DHT22;4872;48.316;10.650;2024-02-23T06:48:33;4.90;99.90
9668;DHT22;4872;48.316;10.650;2024-02-23T06:51:01;5.10;99.90
9668;DHT22;4872;48.316;10.650;2024-02-23T06:53:28;4.90;99.90
9668;DHT22;4872;48.316;10.650;2024-02-23T06:55:55;4.90;99.90
9668;DHT22;4872;48.316;10.650;2024-02-23T06:58:24;5.00;99.90
9668;DHT22;4872;48.316;10.650;2024-02-23T07:00:51;4.90;99.90
9668;DHT22;4872;48.316;10.650;2024-02-23T07:03:18;4.90;99.90
9668;DHT22;4872;48.316;10.650;2024-02-23T07:05:45;4.80;99.90
9668;DHT22;4872;48.316;10.650;2024-02-23T07:08:14;4.90;99.90
9668;DHT22;4872;48.316;10.650;2024-02-23T07:10:41;4.80;99.90
9668;DHT22;4872;48.316;10.650;2024-02-23T07:13:08;4.80;99.90
9668;DHT22;4872;48.316;10.650;2024-02-23T07:15:35;4.90;99.90
9668;DHT22;4872;48.316;10.650;2024-02-23T07:18:03;4.90;99.90
9668;DHT22;4872;48.316;10.650;2024-02-23T07:20:30;4.80;99.90
9668;DHT22;4872;48.316;10.650;2024-02-23T07:22:56;4.80;99.90
9668;DHT22;4872;48.316;10.650;2024-02-23T07:25:24;4.80;99.90
9668;DHT22;4872;48.316;10.650;2024-02-23T07:27:51;5.20;99.90
9668;DHT22;4872;48.316;10.650;2024-02-23T07:30:18;4.80;99.90
9668;DHT22;4872;48.316;10.650;2024-02-23T07:32:45;4.80;99.90
9668;DHT22;4872;48.316;10.650;2024-02-23T07:35:12;4.80;99.90
9668;DHT22;4872;48.316;10.650;2024-02-23T07:37:39;4.80;99.90
9668;DHT22;4872;48.316;10.650;2024-02-23T07:40:07;4.90;99.90
9668;DHT22;4872;48.316;10.650;2024-02-23T07:42:35;4.90;99.90
9668;DHT22;4872;48.316;10.650;2024-02-23T07:45:03;4.80;99.90
9668;DHT22;4872;48.316;10.650;2024-02-23T07:47:30;4.80;99.90
9668;DHT22;4872;48.316;10.650;2024-02-23T07:49:57;4.80;99.90
9668;DHT22;4872;48.316;10.650;2024-02-23T07:52:24;4.80;99.90
9668;DHT22;4872;48.316;10.650;2024-02-23T07:54:51;4.80;99.90
9668;DHT22;4872;48.316;10.650;2024-02-23T07:57:18;5.00;99.90
9668;DHT22;4872;48.316;10.650;2024-02-23T07:59:47;4.90;99.90
9668;DHT22;4872;48.316;10.650;2024-02-23T08:02:15;4.90;99.90
9668;DHT22;4872;48.316;10.650;2024-02-23T08:04:41;4.90;99.90
9668;DHT22;4872;48.316;10.650;2024-02-23T08:07:08;4.90;99.90
9668;DHT22;4872;48.316;10.650;2024-02-23T08:09:35;4.90;99.90
9668;DHT22;4872;48.316;10.650;2024-02-23T08:12:02;4.90;99.90
9668;DHT22;4872;48.316;10.650;2024-02-23T08:14:29;4.90;99.90
9668;DHT22;4872;48.316;10.650;2024-02-23T08:16:57;5.00;99.90
9668;DHT22;4872;48.316;10.650;2024-02-23T08:19:24;5.00;99.90
9668;DHT22;4872;48.316;10.650;2024-02-23T08:21:51;5.00;99.90
9668;DHT22;4872;48.316;10.650;2024-02-23T08:24:17;5.00;99.90
9668;DHT22;4872;48.316;10.650;2024-02-23T08:26:44;5.10;99.90
9668;DHT22;4872;48.316;10.650;2024-02-23T08:29:11;5.10;99.90
9668;DHT22;4872;48.316;10.650;2024-02-23T08:31:38;5.10;99.90
9668;DHT22;4872;48.316;10.650;2024-02-23T08:34:06;5.10;99.90
9668;DHT22;4872;48.316;10.650;2024-02-23T08:36:33;5.10;99.90
9668;DHT22;4872;48.316;10.650;2024-02-23T08:38:59;5.20;99.90
9668;DHT22;4872;48.316;10.650;2024-02-23T08:41:26;5.10;99.90
9668;DHT22;4872;48.316;10.650;2024-02-23T08:43:53;5.10;99.90
9668;DHT22;4872;48.316;10.650;2024-02-23T08:46:20;5.10;99.90
9668;DHT22;4872;48.316;10.650;2024-02-23T08:48:48;5.50;99.90
9668;DHT22;4872;48.316;10.650;2024-02-23T08:51:16;5.30;99.90
9668;DHT22;4872;48.316;10.650;2024-02-23T08:53:43;5.10;99.90
9668;DHT22;4872;48.316;10.650;2024-02-23T08:56:10;5.20;99.90
9668;DHT22;4872;48.316;10.650;2024-02-23T08:58:37;5.20;99.90
9668;DHT22;4872;48.316;10.650;2024-02-23T09:01:04;5.30;99.90
9668;DHT22;4872;48.316;10.650;2024-02-23T09:03:31;5.40;99.90
9668;DHT22;4872;48.316;10.650;2024-02-23T09:05:58;5.40;99.90
9668;DHT22;4872;48.316;10.650;2024-02-23T09:08:26;5.40;99.90
9668;DHT22;4872;48.316;10.650;2024-02-23T09:10:53;5.30;99.90
9668;DHT22;4872;48.316;10.650;2024-02-23T09:13:19;5.40;99.90
9668;DHT22;4872;48.316;10.650;2024-02-23T09:15:46;5.40;99.90
9668;DHT22;4872;48.316;10.650;2024-02-23T09:18:13;5.50;99.90
9668;DHT22;4872;48.316;10.650;2024-02-23T09:20:40;5.50;99.90
9668;DHT22;4872;48.316;10.650;2024-02-23T09:23:06;5.50;99.90
9668;DHT22;4872;48.316;10.650;2024-02-23T09:25:35;5.40;99.90
9668;DHT22;4872;48.316;10.650;2024-02-23T09:28:01;5.70;99.90
9668;DHT22;4872;48.316;10.650;2024-02-23T09:30:28;5.50;99.90
9668;DHT22;4872;48.316;10.650;2024-02-23T09:32:55;5.50;99.70
9668;DHT22;4872;48.316;10.650;2024-02-23T09:35:22;5.40;99.90
9668;DHT22;4872;48.316;10.650;2024-02-23T09:37:48;5.50;99.60
9668;DHT22;4872;48.316;10.650;2024-02-23T09:40:16;5.40;99.50
9668;DHT22;4872;48.316;10.650;2024-02-23T09:42:56;5.40;99.20
9668;DHT22;4872;48.316;10.650;2024-02-23T09:45:24;5.40;99.30
9668;DHT22;4872;48.316;10.650;2024-02-23T09:47:53;5.50;99.40
9668;DHT22;4872;48.316;10.650;2024-02-23T09:50:20;5.40;99.00
9668;DHT22;4872;48.316;10.650;2024-02-23T09:52:48;5.40;99.00
9668;DHT22;4872;48.316;10.650;2024-02-23T09:55:16;5.50;98.40
9668;DHT22;4872;48.316;10.650;2024-02-23T09:57:48;5.30;98.20
9668;DHT22;4872;48.316;10.650;2024-02-23T10:00:16;5.30;98.00
9668;DHT22;4872;48.316;10.650;2024-02-23T10:02:44;5.20;98.30
9668;DHT22;4872;48.316;10.650;2024-02-23T10:05:11;5.30;98.70
9668;DHT22;4872;48.316;10.650;2024-02-23T10:07:38;5.30;98.60
9668;DHT22;4872;48.316;10.650;2024-02-23T10:10:07;5.30;98.10
9668;DHT22;4872;48.316;10.650;2024-02-23T10:12:33;5.30;97.90
9668;DHT22;4872;48.316;10.650;2024-02-23T10:15:02;5.40;98.00
9668;DHT22;4872;48.316;10.650;2024-02-23T10:17:29;5.50;97.70
9668;DHT22;4872;48.316;10.650;2024-02-23T10:19:56;5.50;97.60
9668;DHT22;4872;48.316;10.650;2024-02-23T10:22:24;5.50;97.30
9668;DHT22;4872;48.316;10.650;2024-02-23T10:24:51;5.60;97.30
9668;DHT22;4872;48.316;10.650;2024-02-23T10:27:18;5.60;97.60
9668;DHT22;4872;48.316;10.650;2024-02-23T10:29:49;5.90;97.40
9668;DHT22;4872;48.316;10.650;2024-02-23T10:32:19;5.80;96.90
9668;DHT22;4872;48.316;10.650;2024-02-23T10:34:47;5.60;96.90
9668;DHT22;4872;48.316;10.650;2024-02-23T10:37:14;5.60;97.00
9668;DHT22;4872;48.316;10.650;2024-02-23T10:39:42;6.00;97.00
9668;DHT22;4872;48.316;10.650;2024-02-23T10:42:09;5.60;97.00
9668;DHT22;4872;48.316;10.650;2024-02-23T10:44:37;5.60;96.80
9668;DHT22;4872;48.316;10.650;2024-02-23T10:47:05;5.60;96.30
9668;DHT22;4872;48.316;10.650;2024-02-23T10:49:36;5.60;96.50
9668;DHT22;4872;48.316;10.650;2024-02-23T10:52:06;5.80;96.40
9668;DHT22;4872;48.316;10.650;2024-02-23T10:54:34;5.70;96.20
9668;DHT22;4872;48.316;10.650;2024-02-23T10:57:02;5.80;96.00
9668;DHT22;4872;48.316;10.650;2024-02-23T10:59:29;5.90;96.50
9668;DHT22;4872;48.316;10.650;2024-02-23T11:01:56;6.00;96.30
9668;DHT22;4872;48.316;10.650;2024-02-23T11:07:48;6.00;95.90
9668;DHT22;4872;48.316;10.650;2024-02-23T11:10:16;6.00;95.80
9668;DHT22;4872;48.316;10.650;2024-02-23T11:12:44;6.00;95.80
9668;DHT22;4872;48.316;10.650;2024-02-23T11:15:26;5.90;95.90
9668;DHT22;4872;48.316;10.650;2024-02-23T11:17:54;5.90;95.70
9668;DHT22;4872;48.316;10.650;2024-02-23T11:20:21;6.10;96.10
9668;DHT22;4872;48.316;10.650;2024-02-23T11:22:52;6.00;96.20
9668;DHT22;4872;48.316;10.650;2024-02-23T11:25:20;6.00;96.20
9668;DHT22;4872;48.316;10.650;2024-02-23T11:27:49;5.90;96.30
9668;DHT22;4872;48.316;10.650;2024-02-23T11:30:17;5.90;96.60
9668;DHT22;4872;48.316;10.650;2024-02-23T11:32:45;6.00;96.80
9668;DHT22;4872;48.316;10.650;2024-02-23T11:35:15;5.90;96.80
9668;DHT22;4872;48.316;10.650;2024-02-23T11:37:46;5.90;96.70
9668;DHT22;4872;48.316;10.650;2024-02-23T11:40:15;5.90;96.80
9668;DHT22;4872;48.316;10.650;2024-02-23T11:42:43;6.00;96.90
9668;DHT22;4872;48.316;10.650;2024-02-23T11:45:10;6.10;97.10
9668;DHT22;4872;48.316;10.650;2024-02-23T11:47:46;6.10;97.10
9668;DHT22;4872;48.316;10.650;2024-02-23T11:50:13;6.10;97.30
9668;DHT22;4872;48.316;10.650;2024-02-23T11:52:41;6.20;97.10
9668;DHT22;4872;48.316;10.650;2024-02-23T11:55:34;6.10;97.30
9668;DHT22;4872;48.316;10.650;2024-02-23T11:58:01;6.00;97.40
9668;DHT22;4872;48.316;10.650;2024-02-23T12:00:40;6.00;97.50
9668;DHT22;4872;48.316;10.650;2024-02-23T12:03:07;6.30;97.50
9668;DHT22;4872;48.316;10.650;2024-02-23T12:05:34;6.10;97.70
9668;DHT22;4872;48.316;10.650;2024-02-23T12:08:00;6.00;97.70
9668;DHT22;4872;48.316;10.650;2024-02-23T12:10:29;6.00;97.70
9668;DHT22;4872;48.316;10.650;2024-02-23T12:12:58;6.00;97.90
9668;DHT22;4872;48.316;10.650;2024-02-23T12:15:25;6.00;97.90
9668;DHT22;4872;48.316;10.650;2024-02-23T12:18:00;6.00;98.10
9668;DHT22;4872;48.316;10.650;2024-02-23T12:20:33;6.10;98.10
9668;DHT22;4872;48.316;10.650;2024-02-23T12:23:01;6.30;98.00
9668;DHT22;4872;48.316;10.650;2024-02-23T12:25:28;6.20;98.00
9668;DHT22;4872;48.316;10.650;2024-02-23T12:27:56;6.30;97.80
9668;DHT22;4872;48.316;10.650;2024-02-23T12:30:23;6.30;98.10
9668;DHT22;4872;48.316;10.650;2024-02-23T12:32:52;6.60;97.90
9668;DHT22;4872;48.316;10.650;2024-02-23T12:35:29;6.50;97.90
9668;DHT22;4872;48.316;10.650;2024-02-23T12:37:55;6.30;98.00
9668;DHT22;4872;48.316;10.650;2024-02-23T12:40:22;6.20;98.00
9668;DHT22;4872;48.316;10.650;2024-02-23T12:42:49;6.40;98.20
9668;DHT22;4872;48.316;10.650;2024-02-23T12:45:17;6.50;98.10
9668;DHT22;4872;48.316;10.650;2024-02-23T12:47:44;6.30;97.80
9668;DHT22;4872;48.316;10.650;2024-02-23T12:50:11;6.40;97.90
9668;DHT22;4872;48.316;10.650;2024-02-23T12:52:37;6.60;98.10
9668;DHT22;4872;48.316;10.650;2024-02-23T12:55:04;6.40;98.00
9668;DHT22;4872;48.316;10.650;2024-02-23T12:57:31;6.50;97.90
9668;DHT22;4872;48.316;10.650;2024-02-23T12:59:58;6.50;98.00
9668;DHT22;4872;48.316;10.650;2024-02-23T13:02:26;6.60;97.90
9668;DHT22;4872;48.316;10.650;2024-02-23T13:04:53;6.50;97.90
9668;DHT22;4872;48.316;10.650;2024-02-23T13:07:20;6.60;98.20
9668;DHT22;4872;48.316;10.650;2024-02-23T13:09:47;6.70;98.00
9668;DHT22;4872;48.316;10.650;2024-02-23T13:12:13;6.70;97.90
9668;DHT22;4872;48.316;10.650;2024-02-23T13:14:40;6.80;98.00
9668;DHT22;4872;48.316;10.650;2024-02-23T13:17:07;6.90;97.90
9668;DHT22;4872;48.316;10.650;2024-02-23T13:19:35;7.00;98.00
9668;DHT22;4872;48.316;10.650;2024-02-23T13:22:03;7.10;97.80
9668;DHT22;4872;48.316;10.650;2024-02-23T13:24:29;7.10;97.60
9668;DHT22;4872;48.316;10.650;2024-02-23T13:26:56;6.90;97.50
9668;DHT22;4872;48.316;10.650;2024-02-23T13:29:23;6.90;97.60
9668;DHT22;4872;48.316;10.650;2024-02-23T13:31:50;6.90;97.40
9668;DHT22;4872;48.316;10.650;2024-02-23T13:34:16;6.90;97.40
9668;DHT22;4872;48.316;10.650;2024-02-23T13:36:45;6.80;96.70
9668;DHT22;4872;48.316;10.650;2024-02-23T13:39:12;6.70;96.60
9668;DHT22;4872;48.316;10.650;2024-02-23T13:41:39;6.70;96.60
9668;DHT22;4872;48.316;10.650;2024-02-23T13:44:06;6.70;96.30
9668;DHT22;4872;48.316;10.650;2024-02-23T13:46:36;7.00;96.50
9668;DHT22;4872;48.316;10.650;2024-02-23T13:49:05;6.70;96.40
9668;DHT22;4872;48.316;10.650;2024-02-23T13:51:33;6.70;96.50
9668;DHT22;4872;48.316;10.650;2024-02-23T13:54:01;6.60;96.70
9668;DHT22;4872;48.316;10.650;2024-02-23T13:56:28;6.70;96.40
9668;DHT22;4872;48.316;10.650;2024-02-23T13:58:55;6.60;96.60
9668;DHT22;4872;48.316;10.650;2024-02-23T14:01:22;6.60;96.60
9668;DHT22;4872;48.316;10.650;2024-02-23T14:03:49;6.70;96.40
9668;DHT22;4872;48.316;10.650;2024-02-23T14:06:15;6.70;96.00
9668;DHT22;4872;48.316;10.650;2024-02-23T14:08:42;6.70;95.80
9668;DHT22;4872;48.316;10.650;2024-02-23T14:11:11;6.70;95.50
9668;DHT22;4872;48.316;10.650;2024-02-23T14:13:37;6.50;95.90
9668;DHT22;4872;48.316;10.650;2024-02-23T14:16:05;6.50;95.80
9668;DHT22;4872;48.316;10.650;2024-02-23T14:18:31;6.40;95.90
9668;DHT22;4872;48.316;10.650;2024-02-23T14:21:03;6.70;95.90
9668;DHT22;4872;48.316;10.650;2024-02-23T14:23:30;6.50;96.00
9668;DHT22;4872;48.316;10.650;2024-02-23T14:25:56;6.50;95.50
9668;DHT22;4872;48.316;10.650;2024-02-23T14:28:49;6.60;95.40
9668;DHT22;4872;48.316;10.650;2024-02-23T14:31:16;6.30;95.60
9668;DHT22;4872;48.316;10.650;2024-02-23T14:33:43;6.40;95.60
9668;DHT22;4872;48.316;10.650;2024-02-23T14:36:10;6.40;95.80
9668;DHT22;4872;48.316;10.650;2024-02-23T14:38:36;6.30;95.20
9668;DHT22;4872;48.316;10.650;2024-02-23T14:41:03;6.40;95.30
9668;DHT22;4872;48.316;10.650;2024-02-23T14:43:34;6.40;95.30
9668;DHT22;4872;48.316;10.650;2024-02-23T14:46:03;6.40;95.40
9668;DHT22;4872;48.316;10.650;2024-02-23T14:48:45;6.40;95.40
9668;DHT22;4872;48.316;10.650;2024-02-23T14:51:14;6.60;95.50
9668;DHT22;4872;48.316;10.650;2024-02-23T14:53:41;6.50;95.10
9668;DHT22;4872;48.316;10.650;2024-02-23T14:56:08;6.50;95.00
9668;DHT22;4872;48.316;10.650;2024-02-23T14:58:35;6.60;95.20
9668;DHT22;4872;48.316;10.650;2024-02-23T15:01:21;6.60;94.70
9668;DHT22;4872;48.316;10.650;2024-02-23T15:03:49;6.60;94.70
9668;DHT22;4872;48.316;10.650;2024-02-23T15:06:16;6.40;94.40
9668;DHT22;4872;48.316;10.650;2024-02-23T15:08:43;6.60;94.20
9668;DHT22;4872;48.316;10.650;2024-02-23T15:11:11;6.60;94.30
9668;DHT22;4872;48.316;10.650;2024-02-23T15:13:38;7.00;94.00
9668;DHT22;4872;48.316;10.650;2024-02-23T15:16:06;6.50;93.90
9668;DHT22;4872;48.316;10.650;2024-02-23T15:22:00;6.50;93.70
9668;DHT22;4872;48.316;10.650;2024-02-23T15:28:03;6.50;94.00
9668;DHT22;4872;48.316;10.650;2024-02-23T15:30:30;6.50;93.90
9668;DHT22;4872;48.316;10.650;2024-02-23T15:32:57;6.50;93.70
9668;DHT22;4872;48.316;10.650;2024-02-23T15:35:24;6.50;93.50
9668;DHT22;4872;48.316;10.650;2024-02-23T15:37:53;6.40;93.40
9668;DHT22;4872;48.316;10.650;2024-02-23T15:40:20;6.50;93.50
9668;DHT22;4872;48.316;10.650;2024-02-23T15:42:46;6.40;93.90
9668;DHT22;4872;48.316;10.650;2024-02-23T15:48:03;6.40;93.30
9668;DHT22;4872;48.316;10.650;2024-02-23T15:50:29;6.40;93.50
9668;DHT22;4872;48.316;10.650;2024-02-23T15:52:59;6.60;93.80
9668;DHT22;4872;48.316;10.650;2024-02-23T15:55:27;6.50;93.70
9668;DHT22;4872;48.316;10.650;2024-02-23T15:57:54;6.40;93.70
9668;DHT22;4872;48.316;10.650;2024-02-23T16:00:21;6.40;93.80
9668;DHT22;4872;48.316;10.650;2024-02-23T16:02:48;6.40;93.60
9668;DHT22;4872;48.316;10.650;2024-02-23T16:05:15;6.20;93.70
9668;DHT22;4872;48.316;10.650;2024-02-23T16:07:41;6.10;93.40
9668;DHT22;4872;48.316;10.650;2024-02-23T16:10:11;6.10;93.60
9668;DHT22;4872;48.316;10.650;2024-02-23T16:12:38;6.00;93.40
9668;DHT22;4872;48.316;10.650;2024-02-23T16:15:06;6.00;93.40
9668;DHT22;4872;48.316;10.650;2024-02-23T16:17:34;6.00;93.60
9668;DHT22;4872;48.316;10.650;2024-02-23T16:20:01;6.00;93.60
9668;DHT22;4872;48.316;10.650;2024-02-23T16:22:28;6.00;93.50
9668;DHT22;4872;48.316;10.650;2024-02-23T16:24:54;5.90;93.50
9668;DHT22;4872;48.316;10.650;2024-02-23T16:27:22;5.90;93.60
9668;DHT22;4872;48.316;10.650;2024-02-23T16:29:49;5.90;93.70
9668;DHT22;4872;48.316;10.650;2024-02-23T16:32:16;5.90;93.40
9668;DHT22;4872;48.316;10.650;2024-02-23T16:34:43;5.90;93.20
9668;DHT22;4872;48.316;10.650;2024-02-23T16:37:09;5.80;93.00
9668;DHT22;4872;48.316;10.650;2024-02-23T16:39:36;5.70;93.30
9668;DHT22;4872;48.316;10.650;2024-02-23T16:42:03;5.90;93.40
9668;DHT22;4872;48.316;10.650;2024-02-23T16:44:32;5.70;93.50
9668;DHT22;4872;48.316;10.650;2024-02-23T16:46:58;5.70;93.50
9668;DHT22;4872;48.316;10.650;2024-02-23T16:49:25;5.60;93.60
9668;DHT22;4872;48.316;10.650;2024-02-23T16:51:52;5.50;93.60
9668;DHT22;4872;48.316;10.650;2024-02-23T16:54:19;5.50;93.70
9668;DHT22;4872;48.316;10.650;2024-02-23T16:56:46;5.60;93.50
9668;DHT22;4872;48.316;10.650;2024-02-23T16:59:13;5.50;93.10
9668;DHT22;4872;48.316;10.650;2024-02-23T17:01:41;5.50;93.10
9668;DHT22;4872;48.316;10.650;2024-02-23T17:04:43;5.40;93.30
9668;DHT22;4872;48.316;10.650;2024-02-23T17:07:19;5.50;93.20
9668;DHT22;4872;48.316;10.650;2024-02-23T17:09:46;5.50;93.20
9668;DHT22;4872;48.316;10.650;2024-02-23T17:12:14;5.50;93.20
9668;DHT22;4872;48.316;10.650;2024-02-23T17:14:43;5.50;93.30
9668;DHT22;4872;48.316;10.650;2024-02-23T17:17:11;5.40;93.50
9668;DHT22;4872;48.316;10.650;2024-02-23T17:19:38;5.40;93.60
9668;DHT22;4872;48.316;10.650;2024-02-23T17:22:06;5.20;93.60
9668;DHT22;4872;48.316;10.650;2024-02-23T17:24:33;5.20;93.60
9668;DHT22;4872;48.316;10.650;2024-02-23T17:27:00;5.20;93.60
9668;DHT22;4872;48.316;10.650;2024-02-23T17:29:27;5.20;93.60
9668;DHT22;4872;48.316;10.650;2024-02-23T17:31:54;5.20;93.70
9668;DHT22;4872;48.316;10.650;2024-02-23T17:34:22;5.10;93.60
9668;DHT22;4872;48.316;10.650;2024-02-23T17:36:49;5.00;93.70
9668;DHT22;4872;48.316;10.650;2024-02-23T17:39:16;5.00;93.70
9668;DHT22;4872;48.316;10.650;2024-02-23T17:41:42;5.00;93.70
9668;DHT22;4872;48.316;10.650;2024-02-23T17:44:43;5.00;93.80
9668;DHT22;4872;48.316;10.650;2024-02-23T17:47:26;4.90;93.70
9668;DHT22;4872;48.316;10.650;2024-02-23T17:50:10;5.10;93.90
9668;DHT22;4872;48.316;10.650;2024-02-23T17:52:36;4.90;93.80
9668;DHT22;4872;48.316;10.650;2024-02-23T17:55:04;4.90;93.90
9668;DHT22;4872;48.316;10.650;2024-02-23T17:57:31;4.90;93.80
9668;DHT22;4872;48.316;10.650;2024-02-23T17:59:57;4.80;94.00
9668;DHT22;4872;48.316;10.650;2024-02-23T18:02:24;4.80;94.00
9668;DHT22;4872;48.316;10.650;2024-02-23T18:04:51;4.80;94.00
9668;DHT22;4872;48.316;10.650;2024-02-23T18:07:19;4.80;94.10
9668;DHT22;4872;48.316;10.650;2024-02-23T18:09:46;5.00;94.30
9668;DHT22;4872;48.316;10.650;2024-02-23T18:12:13;4.70;94.40
9668;DHT22;4872;48.316;10.650;2024-02-23T18:14:40;4.60;94.50
9668;DHT22;4872;48.316;10.650;2024-02-23T18:17:06;4.50;94.60
9668;DHT22;4872;48.316;10.650;2024-02-23T18:25:26;4.50;94.70
9668;DHT22;4872;48.316;10.650;2024-02-23T18:27:53;4.50;94.60
9668;DHT22;4872;48.316;10.650;2024-02-23T18:30:20;4.50;94.80
9668;DHT22;4872;48.316;10.650;2024-02-23T18:35:57;4.40;94.80
9668;DHT22;4872;48.316;10.650;2024-02-23T18:38:25;4.40;94.90
9668;DHT22;4872;48.316;10.650;2024-02-23T18:40:53;4.40;95.10
9668;DHT22;4872;48.316;10.650;2024-02-23T18:43:20;4.40;95.10
9668;DHT22;4872;48.316;10.650;2024-02-23T18:45:46;4.40;95.00
9668;DHT22;4872;48.316;10.650;2024-02-23T18:48:13;4.60;95.00
9668;DHT22;4872;48.316;10.650;2024-02-23T18:50:40;4.40;94.90
9668;DHT22;4872;48.316;10.650;2024-02-23T18:53:07;4.40;94.90
9668;DHT22;4872;48.316;10.650;2024-02-23T18:55:33;4.30;94.80
9668;DHT22;4872;48.316;10.650;2024-02-23T18:58:04;4.30;94.80
9668;DHT22;4872;48.316;10.650;2024-02-23T19:00:32;4.40;94.80
9668;DHT22;4872;48.316;10.650;2024-02-23T19:02:59;4.30;94.80
9668;DHT22;4872;48.316;10.650;2024-02-23T19:05:26;4.30;94.90
9668;DHT22;4872;48.316;10.650;2024-02-23T19:08:08;4.30;95.00
9668;DHT22;4872;48.316;10.650;2024-02-23T19:10:35;4.30;95.10
9668;DHT22;4872;48.316;10.650;2024-02-23T19:13:04;4.20;95.10
9668;DHT22;4872;48.316;10.650;2024-02-23T19:15:31;4.20;95.10
9668;DHT22;4872;48.316;10.650;2024-02-23T19:17:57;4.20;95.20
9668;DHT22;4872;48.316;10.650;2024-02-23T19:20:24;4.20;95.20
9668;DHT22;4872;48.316;10.650;2024-02-23T19:22:51;4.10;95.20
9668;DHT22;4872;48.316;10.650;2024-02-23T19:25:20;4.10;95.30
9668;DHT22;4872;48.316;10.650;2024-02-23T19:27:47;4.10;95.30
9668;DHT22;4872;48.316;10.650;2024-02-23T19:30:16;4.10;95.30
9668;DHT22;4872;48.316;10.650;2024-02-23T19:33:17;4.10;95.30
9668;DHT22;4872;48.316;10.650;2024-02-23T19:35:43;4.10;95.30
9668;DHT22;4872;48.316;10.650;2024-02-23T19:38:10;4.10;95.40
9668;DHT22;4872;48.316;10.650;2024-02-23T19:40:37;4.10;95.40
9668;DHT22;4872;48.316;10.650;2024-02-23T19:43:04;4.20;95.40
9668;DHT22;4872;48.316;10.650;2024-02-23T19:45:32;4.10;95.20
9668;DHT22;4872;48.316;10.650;2024-02-23T19:47:59;4.10;95.20
9668;DHT22;4872;48.316;10.650;2024-02-23T19:50:26;4.00;95.40
9668;DHT22;4872;48.316;10.650;2024-02-23T19:52:53;4.10;95.60
9668;DHT22;4872;48.316;10.650;2024-02-23T19:55:20;4.00;95.50
9668;DHT22;4872;48.316;10.650;2024-02-23T19:57:47;4.00;95.50
9668;DHT22;4872;48.316;10.650;2024-02-23T20:00:14;4.00;95.40
9668;DHT22;4872;48.316;10.650;2024-02-23T20:02:42;4.00;95.40
9668;DHT22;4872;48.316;10.650;2024-02-23T20:05:09;4.00;95.50
9668;DHT22;4872;48.316;10.650;2024-02-23T20:07:36;4.00;95.40
9668;DHT22;4872;48.316;10.650;2024-02-23T20:10:03;3.90;95.40
9668;DHT22;4872;48.316;10.650;2024-02-23T20:12:31;3.90;95.50
9668;DHT22;4872;48.316;10.650;2024-02-23T20:14:58;3.90;95.60
9668;DHT22;4872;48.316;10.650;2024-02-23T20:17:28;3.90;95.40
9668;DHT22;4872;48.316;10.650;2024-02-23T20:19:59;3.90;95.40
9668;DHT22;4872;48.316;10.650;2024-02-23T20:22:26;3.90;95.30
9668;DHT22;4872;48.316;10.650;2024-02-23T20:24:53;3.90;95.30
9668;DHT22;4872;48.316;10.650;2024-02-23T20:27:19;3.90;95.50
9668;DHT22;4872;48.316;10.650;2024-02-23T20:29:47;3.90;95.50
9668;DHT22;4872;48.316;10.650;2024-02-23T20:32:14;3.80;95.60
9668;DHT22;4872;48.316;10.650;2024-02-23T20:34:41;3.80;95.80
9668;DHT22;4872;48.316;10.650;2024-02-23T20:37:09;3.90;95.90
9668;DHT22;4872;48.316;10.650;2024-02-23T20:39:35;3.90;95.90
9668;DHT22;4872;48.316;10.650;2024-02-23T20:42:03;4.00;96.00
9668;DHT22;4872;48.316;10.650;2024-02-23T20:44:31;4.00;95.90
9668;DHT22;4872;48.316;10.650;2024-02-23T20:46:58;4.10;96.00
9668;DHT22;4872;48.316;10.650;2024-02-23T20:49:25;4.00;96.00
9668;DHT22;4872;48.316;10.650;2024-02-23T20:51:52;4.00;96.10
9668;DHT22;4872;48.316;10.650;2024-02-23T20:54:23;4.00;96.20
9668;DHT22;4872;48.316;10.650;2024-02-23T20:56:49;4.00;96.30
9668;DHT22;4872;48.316;10.650;2024-02-23T20:59:16;4.00;96.20
9668;DHT22;4872;48.316;10.650;2024-02-23T21:01:43;4.20;96.30
9668;DHT22;4872;48.316;10.650;2024-02-23T21:04:10;4.00;96.10
9668;DHT22;4872;48.316;10.650;2024-02-23T21:06:36;3.90;96.30
9668;DHT22;4872;48.316;10.650;2024-02-23T21:09:03;3.90;96.20
9668;DHT22;4872;48.316;10.650;2024-02-23T21:11:32;4.10;96.20
9668;DHT22;4872;48.316;10.650;2024-02-23T21:13:59;4.00;95.90
9668;DHT22;4872;48.316;10.650;2024-02-23T21:16:26;3.90;96.30
9668;DHT22;4872;48.316;10.650;2024-02-23T21:18:52;3.60;96.00
9668;DHT22;4872;48.316;10.650;2024-02-23T21:21:19;3.60;96.30
9668;DHT22;4872;48.316;10.650;2024-02-23T21:23:47;3.60;96.30
9668;DHT22;4872;48.316;10.650;2024-02-23T21:26:14;3.60;96.40
9668;DHT22;4872;48.316;10.650;2024-02-23T21:28:42;3.60;96.50
9668;DHT22;4872;48.316;10.650;2024-02-23T21:31:09;3.60;96.40
9668;DHT22;4872;48.316;10.650;2024-02-23T21:33:35;3.60;96.40
9668;DHT22;4872;48.316;10.650;2024-02-23T21:36:05;3.60;96.40